Time;durP1;ratioP1;P1;durP2;ratioP2;P2;SDS_P1;SDS_P2;PMS_P1;PMS_P2;Temp;Humidity;BMP_temperature;BMP_pressure;BME280_temperature;BME280_humidity;BME280_pressure;Samples;Min_cycle;Max_cycle;Signal;HPM_P1;HPM_P2
2022/03/25 00:00:12;;;;;;;21.07;15.87;;;;;;;4.56;100.00;97914.50;4984558;28;20228;-53
2022/03/25 00:02:41;;;;;;;17.80;15.07;;;;;;;4.65;100.00;97916.34;5002295;28;20307;-55
2022/03/25 00:05:11;;;;;;;17.40;14.27;;;;;;;4.42;100.00;97920.88;4999555;28;20414;-53
2022/03/25 00:07:40;;;;;;;17.57;14.97;;;;;;;4.35;100.00;97908.25;5000496;28;20513;-55
2022/03/25 00:10:08;;;;;;;17.67;14.20;;;;;;;4.44;100.00;97916.34;4970491;28;20221;-54
2022/03/25 00:12:37;;;;;;;17.60;14.57;;;;;;;4.51;100.00;97914.03;5000556;28;20208;-52
2022/03/25 00:15:06;;;;;;;16.63;14.20;;;;;;;4.42;100.00;97918.25;4985732;28;20232;-53
2022/03/25 00:17:35;;;;;;;14.00;12.30;;;;;;;4.28;100.00;97925.47;5003428;28;20197;-55
2022/03/25 00:20:04;;;;;;;17.30;14.13;;;;;;;4.20;100.00;97922.63;4999742;28;20311;-54
2022/03/25 00:22:34;;;;;;;18.03;14.20;;;;;;;4.16;100.00;97919.41;5003448;28;20205;-56
2022/03/25 00:25:04;;;;;;;18.87;14.80;;;;;;;4.10;100.00;97922.53;4959058;28;20220;-55
2022/03/25 00:27:33;;;;;;;19.33;15.17;;;;;;;4.10;100.00;97913.88;5005222;28;20209;-53
2022/03/25 00:30:01;;;;;;;15.77;13.93;;;;;;;4.17;100.00;97913.25;4984206;28;20224;-55
2022/03/25 00:32:30;;;;;;;16.13;14.10;;;;;;;4.05;100.00;97901.97;5001787;28;20204;-54
2022/03/25 00:34:59;;;;;;;18.10;14.23;;;;;;;4.20;100.00;97912.16;4998742;28;20239;-54
2022/03/25 00:37:27;;;;;;;18.43;14.67;;;;;;;4.13;100.00;97908.38;5002230;28;20219;-55
2022/03/25 00:39:57;;;;;;;18.00;15.20;;;;;;;4.24;100.00;97904.88;4971177;28;20315;-56
2022/03/25 00:42:27;;;;;;;19.03;14.40;;;;;;;4.14;100.00;97905.59;5000973;28;20694;-56
2022/03/25 00:44:55;;;;;;;17.13;13.97;;;;;;;4.14;100.00;97912.66;5002911;28;20204;-57
2022/03/25 00:47:24;;;;;;;17.03;14.17;;;;;;;4.08;100.00;97906.09;4989005;28;20885;-54
2022/03/25 00:49:53;;;;;;;17.10;14.20;;;;;;;3.98;100.00;97908.66;5003384;28;20230;-54
2022/03/25 00:52:21;;;;;;;19.10;14.97;;;;;;;3.81;100.00;97907.41;5009531;28;20743;-52
2022/03/25 00:54:50;;;;;;;18.07;13.80;;;;;;;3.96;100.00;97900.06;4967855;28;20540;-55
2022/03/25 00:57:20;;;;;;;17.00;13.17;;;;;;;3.75;100.00;97908.72;5006177;28;20221;-49
2022/03/25 00:59:51;;;;;;;15.73;13.73;;;;;;;3.70;100.00;97905.63;5009641;28;20368;-56
2022/03/25 01:02:20;;;;;;;16.30;13.93;;;;;;;3.70;100.00;97899.53;4993057;28;20212;-55
2022/03/25 01:04:48;;;;;;;17.43;14.00;;;;;;;3.50;100.00;97899.34;5006657;28;20210;-54
2022/03/25 01:07:17;;;;;;;15.33;13.70;;;;;;;3.37;100.00;97907.34;5009205;28;20208;-52
2022/03/25 01:09:46;;;;;;;17.30;14.13;;;;;;;3.39;100.00;97900.19;4987683;28;20234;-56
2022/03/25 01:12:15;;;;;;;16.33;13.60;;;;;;;3.31;100.00;97905.22;4991970;28;20351;-52
2022/03/25 01:14:45;;;;;;;17.90;14.00;;;;;;;3.44;100.00;97899.84;5008327;28;20212;-53
2022/03/25 01:17:15;;;;;;;17.43;14.03;;;;;;;3.51;100.00;97898.41;4991357;28;20226;-53
2022/03/25 01:19:44;;;;;;;18.07;13.73;;;;;;;3.42;100.00;97902.56;5006850;28;20220;-56
2022/03/25 01:22:12;;;;;;;18.90;14.60;;;;;;;3.41;100.00;97898.28;5002586;28;21328;-55
2022/03/25 01:24:41;;;;;;;16.07;13.43;;;;;;;3.26;100.00;97902.13;5002586;28;20211;-55
2022/03/25 01:27:09;;;;;;;20.03;16.33;;;;;;;3.31;100.00;97902.59;4972275;28;21016;-54
2022/03/25 01:29:38;;;;;;;16.23;14.20;;;;;;;3.37;100.00;97896.88;5006998;28;20232;-52
2022/03/25 01:32:08;;;;;;;18.73;14.60;;;;;;;3.21;100.00;97906.84;5002492;28;20207;-51
2022/03/25 01:34:37;;;;;;;16.27;13.10;;;;;;;3.20;100.00;97906.03;4991521;28;20652;-52
2022/03/25 01:37:06;;;;;;;16.13;14.27;;;;;;;2.99;100.00;97904.13;5002217;28;20451;-51
2022/03/25 01:39:34;;;;;;;15.50;13.23;;;;;;;2.81;100.00;97901.13;5011600;28;20240;-53
2022/03/25 01:42:03;;;;;;;17.60;13.47;;;;;;;2.69;100.00;97907.31;4967968;28;20683;-50
2022/03/25 01:44:32;;;;;;;18.30;14.17;;;;;;;2.64;100.00;97894.56;5007836;28;20212;-52
2022/03/25 01:47:01;;;;;;;19.73;12.33;;;;;;;2.53;100.00;97903.25;5003570;28;20434;-52
2022/03/25 01:49:30;;;;;;;16.60;13.70;;;;;;;2.51;100.00;97897.28;4991749;28;20596;-52
2022/03/25 01:52:00;;;;;;;19.60;15.07;;;;;;;2.64;100.00;97891.13;5001728;28;20204;-53
2022/03/25 01:54:31;;;;;;;15.17;13.47;;;;;;;2.51;100.00;97899.91;5009908;28;20217;-55
2022/03/25 01:57:01;;;;;;;15.97;13.90;;;;;;;2.41;100.00;97898.91;4965221;28;20231;-55
2022/03/25 01:59:29;;;;;;;16.93;14.40;;;;;;;2.29;100.00;97895.44;5006393;28;20224;-52
2022/03/25 02:01:58;;;;;;;19.97;15.33;;;;;;;2.20;100.00;97896.13;5000831;28;20235;-52
2022/03/25 02:04:27;;;;;;;18.97;14.70;;;;;;;1.91;100.00;97899.91;4971745;28;20223;-53
2022/03/25 02:06:57;;;;;;;16.03;14.20;;;;;;;1.96;100.00;97900.41;5004231;28;20200;-53
2022/03/25 02:09:26;;;;;;;15.47;13.13;;;;;;;1.73;100.00;97902.94;5006860;28;20734;-52
2022/03/25 02:11:54;;;;;;;18.67;14.60;;;;;;;1.79;100.00;97898.22;4967800;28;20620;-52
2022/03/25 02:14:44;;;;;;;15.23;13.60;;;;;;;1.52;100.00;97894.84;4988712;28;20204;-54
2022/03/25 02:17:13;;;;;;;18.27;13.47;;;;;;;1.53;100.00;97903.50;5002067;28;20997;-50
2022/03/25 02:19:42;;;;;;;17.77;14.00;;;;;;;1.39;100.00;97891.44;4998831;28;20247;-57
2022/03/25 02:22:11;;;;;;;17.60;14.10;;;;;;;1.38;100.00;97888.00;4992008;28;20243;-50
2022/03/25 02:24:39;;;;;;;21.23;14.33;;;;;;;1.23;100.00;97902.09;5002010;28;20587;-51
2022/03/25 02:27:08;;;;;;;15.73;13.97;;;;;;;1.27;100.00;97898.34;4968586;28;20204;-55
2022/03/25 02:29:38;;;;;;;19.40;15.63;;;;;;;1.32;100.00;97896.25;4997055;28;20224;-52
2022/03/25 02:32:07;;;;;;;20.17;14.30;;;;;;;1.35;100.00;97893.44;5006119;28;20401;-52
2022/03/25 02:34:40;;;;;;;22.50;14.20;;;;;;;1.35;100.00;97893.44;5003589;28;20207;-56
2022/03/25 02:37:08;;;;;;;18.17;13.80;;;;;;;1.26;100.00;97891.44;4983208;28;20224;-55
2022/03/25 02:39:37;;;;;;;15.03;13.47;;;;;;;1.25;100.00;97895.84;5008429;28;20319;-53
2022/03/25 02:42:06;;;;;;;16.60;13.07;;;;;;;1.15;100.00;97897.44;4971892;28;20647;-56
2022/03/25 02:44:34;;;;;;;16.87;14.97;;;;;;;1.21;100.00;97883.97;5002996;28;20405;-54
2022/03/25 02:47:02;;;;;;;16.07;14.23;;;;;;;1.19;100.00;97898.06;5000958;28;20200;-56
2022/03/25 02:49:30;;;;;;;18.50;14.43;;;;;;;1.11;100.00;97899.41;5007080;28;20232;-55
2022/03/25 02:51:58;;;;;;;16.17;14.53;;;;;;;1.13;100.00;97900.16;4981872;28;20211;-56
2022/03/25 02:54:27;;;;;;;18.33;14.53;;;;;;;1.01;100.00;97904.44;5007654;28;20390;-54
2022/03/25 02:56:56;;;;;;;18.23;14.77;;;;;;;0.88;100.00;97908.84;5005887;28;20326;-56
2022/03/25 02:59:25;;;;;;;17.13;15.03;;;;;;;0.91;100.00;97905.16;4959000;28;20904;-49
2022/03/25 03:01:53;;;;;;;21.47;17.23;;;;;;;0.89;100.00;97909.66;5000825;28;20708;-55
2022/03/25 03:04:21;;;;;;;22.83;16.57;;;;;;;0.97;100.00;97908.19;4999862;28;20215;-52
2022/03/25 03:06:49;;;;;;;20.13;17.03;;;;;;;0.85;100.00;97899.44;4989032;28;20211;-53
2022/03/25 03:09:17;;;;;;;19.57;14.97;;;;;;;0.94;100.00;97899.75;5007311;28;20435;-53
2022/03/25 03:11:46;;;;;;;19.10;14.63;;;;;;;0.91;100.00;97907.78;5006310;28;20223;-55
2022/03/25 03:14:15;;;;;;;18.00;14.20;;;;;;;0.77;100.00;97904.34;4957668;28;20430;-53
2022/03/25 03:16:43;;;;;;;20.43;15.80;;;;;;;0.85;100.00;97904.66;5007597;28;20216;-55
2022/03/25 03:19:12;;;;;;;17.43;14.50;;;;;;;0.73;100.00;97908.09;4996624;28;20422;-50
2022/03/25 03:21:40;;;;;;;18.93;15.07;;;;;;;0.71;100.00;97905.59;4982265;28;20222;-57
2022/03/25 03:24:08;;;;;;;21.03;15.30;;;;;;;0.79;100.00;97912.09;5001238;28;20204;-54
2022/03/25 03:26:37;;;;;;;17.97;14.63;;;;;;;0.70;100.00;97909.13;5005395;28;20521;-56
2022/03/25 03:29:05;;;;;;;19.53;15.50;;;;;;;0.74;100.00;97916.75;4967659;28;20330;-53
2022/03/25 03:31:35;;;;;;;20.97;15.17;;;;;;;0.64;100.00;97922.59;4998631;28;20211;-52
2022/03/25 03:34:03;;;;;;;16.97;14.57;;;;;;;0.56;100.00;97914.47;5003246;28;20649;-53
2022/03/25 03:36:31;;;;;;;20.57;16.23;;;;;;;0.44;100.00;97916.09;4958541;28;20216;-55
2022/03/25 03:39:01;;;;;;;16.83;15.03;;;;;;;0.21;100.00;97912.41;5001931;28;20254;-53
2022/03/25 03:41:29;;;;;;;16.30;14.10;;;;;;;0.21;100.00;97915.88;4998088;28;20323;-53
2022/03/25 03:43:58;;;;;;;18.07;14.67;;;;;;;0.28;100.00;97913.66;4988979;28;20219;-55
2022/03/25 03:46:26;;;;;;;15.73;13.90;;;;;;;0.23;100.00;97915.75;4977932;28;20224;-53
2022/03/25 03:48:55;;;;;;;17.60;14.57;;;;;;;0.21;100.00;97912.41;5004386;28;20433;-52
2022/03/25 03:51:23;;;;;;;16.93;14.13;;;;;;;0.31;100.00;97916.06;4995645;28;20409;-56
2022/03/25 03:53:52;;;;;;;19.60;14.80;;;;;;;0.31;100.00;97912.66;4980883;28;20576;-51
2022/03/25 03:56:20;;;;;;;22.20;15.13;;;;;;;0.26;100.00;97913.78;4997712;28;20420;-56
2022/03/25 03:58:48;;;;;;;18.77;15.70;;;;;;;0.37;100.00;97920.06;5003247;28;20712;-55
2022/03/25 04:01:16;;;;;;;18.50;13.97;;;;;;;0.35;100.00;97916.72;4955460;28;20943;-57
2022/03/25 04:03:44;;;;;;;20.67;15.40;;;;;;;0.22;100.00;97909.72;5002330;28;20212;-57
2022/03/25 04:06:14;;;;;;;17.30;14.70;;;;;;;0.23;100.00;97914.00;4997781;28;21039;-51
2022/03/25 04:08:42;;;;;;;17.43;15.37;;;;;;;0.31;100.00;97915.25;4980443;28;20371;-54
2022/03/25 04:11:10;;;;;;;19.53;14.67;;;;;;;0.29;100.00;97923.16;4997378;28;20204;-53
2022/03/25 04:13:38;;;;;;;17.77;15.27;;;;;;;0.25;100.00;97917.34;4971611;28;20220;-51
2022/03/25 04:16:06;;;;;;;20.67;16.13;;;;;;;0.16;100.00;97912.69;4955886;28;20754;-54
2022/03/25 04:18:35;;;;;;;18.97;15.67;;;;;;;0.23;100.00;97908.78;4997785;28;20780;-52
2022/03/25 04:21:03;;;;;;;18.60;15.70;;;;;;;0.18;100.00;97915.22;4999958;28;20201;-54
2022/03/25 04:23:33;;;;;;;21.87;16.80;;;;;;;0.19;100.00;97909.06;4980376;28;20208;-49
2022/03/25 04:26:02;;;;;;;16.77;14.63;;;;;;;0.20;100.00;97908.13;5003916;28;20681;-55
2022/03/25 04:28:30;;;;;;;18.20;15.57;;;;;;;0.21;100.00;97897.63;5004018;28;20211;-53
2022/03/25 04:30:58;;;;;;;19.87;15.53;;;;;;;0.04;100.00;97896.13;4959143;28;20791;-54
2022/03/25 04:33:26;;;;;;;18.73;15.60;;;;;;;0.12;100.00;97903.41;5006534;28;20212;-54
2022/03/25 04:35:54;;;;;;;19.10;15.13;;;;;;;0.03;100.00;97909.22;5006286;28;20204;-52
2022/03/25 04:38:22;;;;;;;22.57;17.83;;;;;;;0.08;100.00;97912.38;4981242;28;20220;-50
2022/03/25 04:40:52;;;;;;;17.50;15.37;;;;;;;-0.06;100.00;97892.41;4983047;28;20211;-51
2022/03/25 04:43:20;;;;;;;18.07;15.00;;;;;;;0.10;100.00;97911.34;5010439;28;20204;-52
2022/03/25 04:45:48;;;;;;;19.93;15.37;;;;;;;-0.12;100.00;97921.47;4986161;28;20953;-53
2022/03/25 04:48:16;;;;;;;21.10;15.40;;;;;;;0.00;100.00;97915.50;4963010;28;20612;-52
2022/03/25 04:50:44;;;;;;;17.70;14.30;;;;;;;-0.13;100.00;97907.63;4984018;28;20627;-51
2022/03/25 04:53:13;;;;;;;18.53;15.83;;;;;;;-0.21;100.00;97915.94;5009960;28;20204;-50
2022/03/25 04:55:41;;;;;;;18.40;16.23;;;;;;;-0.11;100.00;97926.59;4970959;28;20209;-54
2022/03/25 04:58:10;;;;;;;20.23;16.63;;;;;;;-0.18;100.00;97918.34;5006385;28;20220;-55
2022/03/25 05:00:38;;;;;;;18.33;15.53;;;;;;;-0.04;100.00;97927.03;4988888;28;20233;-51
2022/03/25 05:03:07;;;;;;;20.40;15.70;;;;;;;-0.07;100.00;97928.06;4963551;28;21095;-57
2022/03/25 05:05:37;;;;;;;21.67;16.43;;;;;;;-0.11;100.00;97931.81;5006363;28;20220;-55
2022/03/25 05:08:05;;;;;;;19.37;17.10;;;;;;;-0.27;100.00;97929.34;5000905;28;20428;-51
2022/03/25 05:10:33;;;;;;;22.03;16.27;;;;;;;-0.14;100.00;97929.41;4987336;28;20232;-55
2022/03/25 05:13:23;;;;;;;20.93;16.37;;;;;;;-0.05;100.00;97931.41;5004366;28;20205;-54
2022/03/25 05:15:51;;;;;;;20.17;17.27;;;;;;;-0.07;100.00;97925.47;4989317;28;20208;-50
2022/03/25 05:18:19;;;;;;;23.63;17.23;;;;;;;-0.07;100.00;97922.88;4969304;28;20244;-55
2022/03/25 05:20:48;;;;;;;24.93;18.37;;;;;;;0.10;100.00;97927.00;5000766;28;20204;-54
2022/03/25 05:23:16;;;;;;;24.97;16.70;;;;;;;0.11;100.00;97930.41;5002113;28;20208;-56
2022/03/25 05:25:44;;;;;;;19.87;16.57;;;;;;;0.05;100.00;97936.03;4986752;28;20214;-51
2022/03/25 05:28:12;;;;;;;20.97;16.73;;;;;;;0.12;100.00;97934.69;4997878;28;20208;-54
2022/03/25 05:30:42;;;;;;;21.27;17.43;;;;;;;0.08;100.00;97949.72;4999614;28;20228;-50
2022/03/25 05:33:10;;;;;;;21.30;17.47;;;;;;;0.08;100.00;97947.09;4987102;28;20781;-54
2022/03/25 05:35:38;;;;;;;21.97;17.63;;;;;;;0.09;100.00;97948.78;4963945;28;20216;-51
2022/03/25 05:38:08;;;;;;;23.80;16.90;;;;;;;0.04;100.00;97950.00;4977625;28;20337;-53
2022/03/25 05:40:36;;;;;;;21.17;15.87;;;;;;;0.01;100.00;97952.78;4984617;28;20597;-53
2022/03/25 05:43:04;;;;;;;18.07;14.70;;;;;;;-0.08;100.00;97956.81;4992325;28;20765;-54
2022/03/25 05:45:32;;;;;;;18.13;15.67;;;;;;;0.02;100.00;97954.47;5007403;28;20403;-53
2022/03/25 05:48:02;;;;;;;18.60;16.60;;;;;;;0.10;100.00;97952.19;4993248;28;20434;-50
2022/03/25 05:50:30;;;;;;;19.40;16.83;;;;;;;0.24;100.00;97946.94;4963233;28;20239;-53
2022/03/25 05:52:58;;;;;;;21.70;16.60;;;;;;;0.26;100.00;97952.91;5002606;28;20204;-52
2022/03/25 05:55:26;;;;;;;18.80;14.70;;;;;;;0.32;100.00;97958.63;4989873;28;20561;-53
2022/03/25 05:57:55;;;;;;;23.63;18.43;;;;;;;0.60;100.00;97959.44;4992068;28;20228;-52
2022/03/25 06:00:23;;;;;;;24.57;19.27;;;;;;;0.75;100.00;97960.16;5001345;28;20225;-57
2022/03/25 06:02:51;;;;;;;23.57;19.50;;;;;;;0.73;100.00;97960.28;4988901;28;20286;-49
2022/03/25 06:05:21;;;;;;;20.47;17.17;;;;;;;0.95;100.00;97958.84;4961662;28;20256;-54
2022/03/25 06:07:49;;;;;;;24.97;18.80;;;;;;;1.48;100.00;97963.06;5003847;28;20204;-52
2022/03/25 06:10:17;;;;;;;21.17;16.27;;;;;;;1.37;100.00;97959.44;4991973;28;20876;-51
2022/03/25 06:12:45;;;;;;;22.37;17.57;;;;;;;1.46;100.00;97964.97;4977169;28;20211;-50
2022/03/25 06:15:14;;;;;;;19.80;16.20;;;;;;;1.56;100.00;97971.19;4980379;28;22497;-55
2022/03/25 06:17:43;;;;;;;22.93;18.30;;;;;;;1.69;100.00;97963.34;4991363;28;20497;-51
2022/03/25 06:20:13;;;;;;;19.60;17.20;;;;;;;1.65;100.00;97975.78;4961906;28;20519;-51
2022/03/25 06:22:43;;;;;;;19.73;16.57;;;;;;;1.56;100.00;97953.78;5000728;28;20210;-50
2022/03/25 06:25:12;;;;;;;24.43;18.23;;;;;;;1.89;100.00;97975.00;5001066;28;20323;-54
2022/03/25 06:27:48;;;;;;;20.37;16.43;;;;;;;1.84;100.00;97979.72;4989347;28;20884;-54
2022/03/25 06:30:17;;;;;;;19.57;17.03;;;;;;;1.98;100.00;97981.34;4992570;28;20404;-51
2022/03/25 06:32:45;;;;;;;19.97;17.07;;;;;;;2.06;100.00;97980.78;4990114;28;20212;-50
2022/03/25 06:35:14;;;;;;;19.93;16.87;;;;;;;2.14;100.00;97975.84;4989969;28;20720;-55
2022/03/25 06:37:44;;;;;;;20.47;16.70;;;;;;;2.10;100.00;97980.47;4968983;28;20205;-52
2022/03/25 06:40:13;;;;;;;23.07;17.53;;;;;;;2.27;100.00;97984.47;5003205;28;20869;-51
2022/03/25 06:42:42;;;;;;;23.63;18.13;;;;;;;2.32;100.00;97978.91;5001996;28;20911;-50
2022/03/25 06:45:13;;;;;;;23.67;17.13;;;;;;;2.46;100.00;97990.94;4978027;28;20204;-50
2022/03/25 06:47:41;;;;;;;18.40;16.30;;;;;;;2.59;100.00;97983.88;4989353;28;20223;-56
2022/03/25 06:50:13;;;;;;;19.67;17.23;;;;;;;2.74;100.00;97979.28;4984800;28;20538;-53
2022/03/25 06:52:43;;;;;;;21.47;17.60;;;;;;;2.91;100.00;97986.84;4965896;28;20247;-52
2022/03/25 06:55:11;;;;;;;22.10;17.47;;;;;;;3.04;100.00;97990.19;5000471;28;20200;-51
2022/03/25 06:57:47;;;;;;;21.30;17.60;;;;;;;3.14;100.00;97975.44;5003861;28;20597;-49
2022/03/25 07:00:15;;;;;;;24.00;18.33;;;;;;;3.28;100.00;97995.34;4983619;28;20244;-54
2022/03/25 07:02:44;;;;;;;21.67;18.07;;;;;;;3.51;100.00;98003.22;4989427;28;20209;-50
2022/03/25 07:05:14;;;;;;;23.93;18.40;;;;;;;3.61;100.00;98000.72;4988896;28;20290;-49
2022/03/25 07:07:44;;;;;;;20.23;17.60;;;;;;;3.72;100.00;97997.22;4962795;28;20392;-51
2022/03/25 07:10:14;;;;;;;24.60;18.93;;;;;;;3.86;100.00;98001.41;5001268;28;20816;-52
2022/03/25 07:12:44;;;;;;;20.00;17.90;;;;;;;4.05;100.00;97992.91;5005350;28;20231;-48
2022/03/25 07:15:13;;;;;;;22.57;18.87;;;;;;;4.31;100.00;98000.47;4987061;28;20444;-53
2022/03/25 07:17:43;;;;;;;21.50;17.67;;;;;;;4.47;100.00;97997.44;4993341;28;20236;-52
2022/03/25 07:20:13;;;;;;;22.40;18.80;;;;;;;4.68;100.00;97992.22;4976089;28;20931;-52
2022/03/25 07:22:43;;;;;;;23.47;18.67;;;;;;;4.97;100.00;98001.25;4963905;28;20511;-53
2022/03/25 07:25:12;;;;;;;22.73;17.20;;;;;;;5.07;100.00;98002.16;5000155;28;20606;-56
2022/03/25 07:27:41;;;;;;;23.13;18.07;;;;;;;5.28;100.00;98010.00;5005097;28;20298;-56
2022/03/25 07:30:10;;;;;;;20.10;17.90;;;;;;;6.08;100.00;98009.41;4980906;28;20354;-58
2022/03/25 07:32:39;;;;;;;19.73;17.63;;;;;;;7.85;100.00;98006.53;4992060;28;20218;-52
2022/03/25 07:35:08;;;;;;;22.17;18.50;;;;;;;8.70;84.95;98008.09;5002754;28;20204;-57
2022/03/25 07:37:37;;;;;;;19.60;17.40;;;;;;;9.82;72.88;98000.41;4947763;28;20204;-50
2022/03/25 07:40:09;;;;;;;22.23;17.90;;;;;;;10.86;64.26;98005.47;4996862;28;20232;-54
2022/03/25 07:42:37;;;;;;;21.63;19.33;;;;;;;11.39;58.15;98004.25;4999292;28;20212;-56
2022/03/25 07:45:08;;;;;;;22.23;19.10;;;;;;;11.87;55.86;98005.09;4988363;28;20652;-50
2022/03/25 07:47:40;;;;;;;23.83;19.40;;;;;;;12.11;53.24;98010.50;4994301;28;20211;-53
2022/03/25 07:50:09;;;;;;;19.97;17.30;;;;;;;12.30;51.58;98006.59;4989242;28;20731;-54
2022/03/25 07:52:37;;;;;;;22.40;17.93;;;;;;;12.52;50.64;98014.78;4988315;28;20213;-54
2022/03/25 07:55:09;;;;;;;22.47;18.93;;;;;;;10.93;53.99;98023.34;4958122;28;20212;-53
2022/03/25 07:57:38;;;;;;;22.53;18.93;;;;;;;9.65;60.26;98011.91;5006066;28;20208;-53
2022/03/25 08:00:11;;;;;;;23.30;18.90;;;;;;;9.00;68.02;98013.97;4990991;28;20270;-53
2022/03/25 08:02:40;;;;;;;22.53;19.07;;;;;;;9.22;71.70;98009.19;5005647;28;20223;-53
2022/03/25 08:05:10;;;;;;;21.30;19.07;;;;;;;9.17;73.83;98017.56;4982075;28;20234;-55
2022/03/25 08:07:43;;;;;;;22.73;18.67;;;;;;;9.26;75.01;98019.28;5008029;28;20208;-53
2022/03/25 08:10:13;;;;;;;25.03;19.20;;;;;;;9.25;75.53;98004.41;4951575;28;20436;-55
2022/03/25 08:12:41;;;;;;;26.40;18.73;;;;;;;9.26;75.88;98015.81;5008098;28;20211;-52
2022/03/25 08:15:09;;;;;;;24.63;19.03;;;;;;;9.48;75.45;98018.94;5004988;28;20508;-52
2022/03/25 08:17:48;;;;;;;21.87;18.47;;;;;;;9.42;74.32;98028.31;4993719;28;20330;-57
2022/03/25 08:20:25;;;;;;;24.80;18.20;;;;;;;9.49;74.35;98023.25;4986245;28;20261;-57
2022/03/25 08:22:54;;;;;;;24.30;19.07;;;;;;;9.59;72.55;98018.66;4998370;28;20615;-52
2022/03/25 08:28:09;;;;;;;22.13;19.03;;;;;;;10.07;69.51;98024.34;5001299;28;20231;-51
2022/03/25 08:30:38;;;;;;;24.90;19.70;;;;;;;10.24;65.19;98025.22;5009663;28;20216;-55
2022/03/25 08:33:06;;;;;;;25.17;19.83;;;;;;;10.31;62.61;98017.44;4992333;28;20200;-51
2022/03/25 08:35:36;;;;;;;20.30;17.73;;;;;;;10.44;61.54;98014.38;4984903;28;20787;-50
2022/03/25 08:38:05;;;;;;;23.57;18.83;;;;;;;10.83;59.09;98024.34;5006721;28;20314;-54
2022/03/25 08:40:35;;;;;;;21.93;18.43;;;;;;;10.96;58.30;98018.56;4951133;28;20716;-49
2022/03/25 08:43:18;;;;;;;23.37;18.83;;;;;;;11.08;57.97;98020.88;5003377;28;20200;-54
2022/03/25 08:45:46;;;;;;;24.37;18.43;;;;;;;11.34;55.95;98020.69;5006673;28;20849;-53
2022/03/25 08:48:14;;;;;;;21.77;18.63;;;;;;;11.38;54.18;98018.53;4999389;28;20405;-55
2022/03/25 08:50:42;;;;;;;23.13;18.70;;;;;;;11.70;54.27;98022.91;4994710;28;20228;-54
2022/03/25 08:53:11;;;;;;;21.63;18.67;;;;;;;11.71;52.86;98015.78;4988323;28;20236;-58
2022/03/25 08:55:40;;;;;;;22.07;17.87;;;;;;;11.69;52.88;98029.22;4993184;28;20235;-51
2022/03/25 08:58:09;;;;;;;24.33;19.00;;;;;;;11.96;52.38;98023.69;4970370;28;20822;-49
2022/03/25 09:00:37;;;;;;;21.93;18.23;;;;;;;12.04;50.81;98022.84;5005999;28;20235;-50
2022/03/25 09:03:06;;;;;;;23.03;18.97;;;;;;;12.29;49.78;98023.53;4985902;28;20695;-53
2022/03/25 09:05:35;;;;;;;24.53;18.47;;;;;;;12.33;49.36;98016.91;5002818;28;20262;-56
2022/03/25 09:08:04;;;;;;;22.63;19.27;;;;;;;12.39;47.87;98026.84;4977749;28;20393;-52
2022/03/25 09:10:32;;;;;;;26.33;18.97;;;;;;;12.49;47.74;98021.28;5001211;28;20308;-51
2022/03/25 09:13:02;;;;;;;22.43;19.47;;;;;;;12.59;46.62;98021.03;4942841;28;20216;-51
2022/03/25 09:15:30;;;;;;;21.03;18.80;;;;;;;12.89;47.29;98018.50;5008542;28;20212;-54
2022/03/25 09:17:58;;;;;;;23.10;19.03;;;;;;;13.23;44.06;98009.25;4990073;28;20228;-53
2022/03/25 09:20:26;;;;;;;21.80;18.10;;;;;;;13.14;44.81;98018.31;5008992;28;20246;-55
2022/03/25 09:22:55;;;;;;;22.20;18.77;;;;;;;13.05;43.05;98020.22;4982897;28;20218;-54
2022/03/25 09:25:23;;;;;;;22.77;19.37;;;;;;;13.26;43.80;98014.22;5004728;28;20239;-53
2022/03/25 09:27:51;;;;;;;23.93;19.13;;;;;;;13.44;43.06;98013.91;4953055;28;20720;-55
2022/03/25 09:30:26;;;;;;;23.47;18.17;;;;;;;13.47;41.82;98015.38;5005697;28;20221;-54
2022/03/25 09:33:03;;;;;;;21.00;17.97;;;;;;;13.67;42.65;98015.66;4993927;28;20304;-52
2022/03/25 09:35:35;;;;;;;22.53;18.90;;;;;;;13.70;40.53;98019.78;5011921;28;20208;-51
2022/03/25 09:38:03;;;;;;;23.27;18.27;;;;;;;13.98;40.82;98022.63;4989204;28;20215;-53
2022/03/25 09:40:32;;;;;;;21.17;18.67;;;;;;;13.77;40.63;98020.69;4990261;28;20224;-48
2022/03/25 09:43:00;;;;;;;23.73;18.33;;;;;;;14.06;40.27;98024.38;4948457;28;20208;-53
2022/03/25 09:45:32;;;;;;;21.27;17.90;;;;;;;14.14;39.37;98026.91;5009207;28;20204;-50
2022/03/25 09:48:00;;;;;;;24.57;18.73;;;;;;;14.02;40.29;98026.59;5006748;28;20247;-50
2022/03/25 09:50:29;;;;;;;22.37;19.00;;;;;;;14.07;37.92;98015.34;4991801;28;20225;-55
2022/03/25 09:52:57;;;;;;;21.07;18.77;;;;;;;14.21;37.93;98031.53;4992609;28;20219;-52
2022/03/25 09:55:38;;;;;;;24.57;19.17;;;;;;;14.64;39.68;98028.09;4991932;28;20213;-51
2022/03/25 09:58:06;;;;;;;21.27;17.70;;;;;;;14.41;38.95;98027.25;4983323;28;20502;-51
2022/03/25 10:00:36;;;;;;;22.37;19.23;;;;;;;14.67;40.40;98020.56;4965324;28;20327;-53
2022/03/25 10:03:04;;;;;;;22.87;19.30;;;;;;;14.80;40.13;98013.72;5001060;28;20413;-54
2022/03/25 10:05:34;;;;;;;22.37;18.03;;;;;;;14.92;38.74;98011.38;4990954;28;20209;-52
2022/03/25 10:08:02;;;;;;;21.33;18.97;;;;;;;14.98;36.57;98008.75;4994574;28;20200;-57
2022/03/25 10:10:31;;;;;;;20.17;17.83;;;;;;;15.31;36.43;98012.72;4991144;28;20815;-53
2022/03/25 10:13:00;;;;;;;25.27;18.50;;;;;;;15.16;36.38;98010.97;4984980;28;20532;-53
2022/03/25 10:15:30;;;;;;;21.67;19.17;;;;;;;15.03;36.25;98003.69;4963299;28;20217;-56
2022/03/25 10:18:01;;;;;;;23.87;19.10;;;;;;;15.09;36.94;98004.72;5004957;28;20407;-53
2022/03/25 10:20:31;;;;;;;25.73;19.33;;;;;;;15.08;36.53;98004.94;5009284;28;20225;-53
2022/03/25 10:23:09;;;;;;;25.47;18.67;;;;;;;14.94;36.44;97998.66;4989086;28;20251;-53
2022/03/25 10:25:40;;;;;;;23.00;19.03;;;;;;;15.25;37.22;98008.97;4983044;28;20204;-55
2022/03/25 10:28:26;;;;;;;21.03;18.53;;;;;;;15.07;36.61;98006.78;5001129;28;20436;-54
2022/03/25 10:30:56;;;;;;;23.37;18.83;;;;;;;15.11;35.78;97989.34;4948137;28;20211;-52
2022/03/25 10:33:28;;;;;;;20.03;18.03;;;;;;;15.58;36.26;97995.00;5006876;28;20229;-51
2022/03/25 10:36:01;;;;;;;21.83;17.77;;;;;;;15.62;35.87;97998.94;5005223;28;20352;-53
2022/03/25 10:38:41;;;;;;;22.10;19.80;;;;;;;15.59;36.36;97996.66;4988523;28;20223;-50
2022/03/25 10:41:10;;;;;;;21.87;19.23;;;;;;;15.61;36.19;97994.63;4982246;28;20337;-50
2022/03/25 10:43:51;;;;;;;22.73;17.83;;;;;;;15.77;35.77;97990.81;5003673;28;20206;-54
2022/03/25 10:46:34;;;;;;;25.23;20.07;;;;;;;15.69;35.51;97987.47;4959525;28;25615;-53
2022/03/25 10:49:06;;;;;;;23.10;18.23;;;;;;;15.71;35.83;97991.59;4999090;28;20728;-54
2022/03/25 10:51:34;;;;;;;20.50;18.33;;;;;;;15.93;36.23;97985.38;5006480;28;20200;-53
2022/03/25 10:54:05;;;;;;;24.83;19.73;;;;;;;16.04;34.10;97987.47;4985526;28;20581;-53
2022/03/25 10:56:43;;;;;;;27.53;20.03;;;;;;;16.00;34.80;97980.88;4989392;28;20209;-53
2022/03/25 10:59:22;;;;;;;22.87;18.13;;;;;;;16.42;33.90;97992.31;5002510;28;20250;-52
2022/03/25 11:01:51;;;;;;;19.07;17.07;;;;;;;16.38;34.26;97980.38;4967345;28;20758;-53
2022/03/25 11:04:22;;;;;;;21.53;17.80;;;;;;;16.37;34.59;97978.72;4991158;28;20216;-53
2022/03/25 11:06:50;;;;;;;24.87;18.97;;;;;;;16.53;34.69;97984.75;5002538;28;20215;-53
2022/03/25 11:09:20;;;;;;;22.27;17.60;;;;;;;16.46;34.36;97985.53;4988765;28;20362;-54
2022/03/25 11:11:49;;;;;;;20.77;18.30;;;;;;;16.67;33.76;97974.88;4989112;28;20721;-52
2022/03/25 11:14:19;;;;;;;20.47;17.70;;;;;;;16.82;32.18;97974.69;5001797;28;20290;-53
2022/03/25 11:16:48;;;;;;;21.20;18.37;;;;;;;16.21;33.25;97969.22;4988393;28;20212;-54
2022/03/25 11:19:17;;;;;;;23.77;19.00;;;;;;;16.51;33.31;97984.13;4964671;28;20641;-50
2022/03/25 11:21:48;;;;;;;23.37;18.33;;;;;;;16.78;33.29;97966.25;4998630;28;20270;-51
2022/03/25 11:24:21;;;;;;;24.40;18.57;;;;;;;16.88;32.52;97973.88;4988949;28;20317;-55
2022/03/25 11:26:51;;;;;;;20.50;17.33;;;;;;;16.89;31.78;97962.16;4996597;28;20458;-53
2022/03/25 11:29:22;;;;;;;20.67;17.93;;;;;;;16.91;31.51;97971.59;4999824;28;21080;-50